sensor_id;sensor_type;location;lat;lon;timestamp;pressure;altitude;pressure_sealevel;temperature;humidity
31585;BME280;18191;51.288;12.390;2023-05-19T00:02:08;48861.63;;;-144.47;45.78
31585;BME280;18191;51.288;12.390;2023-05-19T00:06:58;48817.88;;;-144.47;45.95
31585;BME280;18191;51.288;12.390;2023-05-19T00:11:50;48798.00;;;-144.47;46.13
31585;BME280;18191;51.288;12.390;2023-05-19T00:16:40;48831.81;;;-144.47;45.52
31585;BME280;18191;51.288;12.390;2023-05-19T00:21:31;48817.88;;;-144.47;47.38
31585;BME280;18191;51.288;12.390;2023-05-19T00:26:22;48853.69;;;-144.47;46.12
31585;BME280;18191;51.288;12.390;2023-05-19T00:31:12;48865.63;;;-144.47;46.42
31585;BME280;18191;51.288;12.390;2023-05-19T00:36:02;48875.56;;;-144.47;46.29
31585;BME280;18191;51.288;12.390;2023-05-19T00:40:53;48829.81;;;-144.47;47.13
31585;BME280;18191;51.288;12.390;2023-05-19T00:45:43;48805.94;;;-144.47;46.89
31585;BME280;18191;51.288;12.390;2023-05-19T00:50:33;48849.69;;;-144.47;47.07
31585;BME280;18191;51.288;12.390;2023-05-19T00:55:25;48829.81;;;-144.47;47.19
31585;BME280;18191;51.288;12.390;2023-05-19T01:00:16;48855.66;;;-144.47;47.73
31585;BME280;18191;51.288;12.390;2023-05-19T01:05:07;48857.66;;;-144.47;47.94
31585;BME280;18191;51.288;12.390;2023-05-19T01:09:57;48837.78;;;-144.47;48.22
31585;BME280;18191;51.288;12.390;2023-05-19T01:14:48;48853.69;;;-144.47;48.51
31585;BME280;18191;51.288;12.390;2023-05-19T01:30:14;48857.66;;;-144.47;49.94
31585;BME280;18191;51.288;12.390;2023-05-19T01:35:06;48841.75;;;-144.47;50.38
31585;BME280;18191;51.288;12.390;2023-05-19T01:39:58;48853.69;;;-144.47;49.08
31585;BME280;18191;51.288;12.390;2023-05-19T01:44:48;48829.81;;;-144.47;49.26
31585;BME280;18191;51.288;12.390;2023-05-19T01:49:40;48857.66;;;-144.47;49.13
31585;BME280;18191;51.288;12.390;2023-05-19T01:54:30;48849.69;;;-144.47;49.95
31585;BME280;18191;51.288;12.390;2023-05-19T01:59:22;48833.78;;;-144.47;49.79
31585;BME280;18191;51.288;12.390;2023-05-19T02:04:24;48853.69;;;-144.47;49.95
31585;BME280;18191;51.288;12.390;2023-05-19T02:14:29;48809.91;;;-144.47;50.94
31585;BME280;18191;51.288;12.390;2023-05-19T02:19:29;48817.88;;;-144.47;50.42
31585;BME280;18191;51.288;12.390;2023-05-19T02:24:19;48839.75;;;-144.47;51.96
31585;BME280;18191;51.288;12.390;2023-05-19T02:29:11;48855.66;;;-144.47;51.51
31585;BME280;18191;51.288;12.390;2023-05-19T02:34:01;48857.66;;;-144.47;51.85
31585;BME280;18191;51.288;12.390;2023-05-19T02:38:52;48849.69;;;-144.47;50.82
31585;BME280;18191;51.288;12.390;2023-05-19T02:43:42;48821.84;;;-144.47;51.65
31585;BME280;18191;51.288;12.390;2023-05-19T02:48:32;48823.84;;;-144.47;52.43
31585;BME280;18191;51.288;12.390;2023-05-19T02:53:22;48821.84;;;-144.47;52.01
31585;BME280;18191;51.288;12.390;2023-05-19T02:58:12;48861.63;;;-144.47;52.52
31585;BME280;18191;51.288;12.390;2023-05-19T03:03:02;48845.72;;;-144.47;53.46
31585;BME280;18191;51.288;12.390;2023-05-19T03:07:53;48909.38;;;-144.47;53.63
31585;BME280;18191;51.288;12.390;2023-05-19T03:12:43;48849.69;;;-144.47;53.53
31585;BME280;18191;51.288;12.390;2023-05-19T03:17:33;48829.81;;;-144.47;52.90
31585;BME280;18191;51.288;12.390;2023-05-19T03:22:25;48841.75;;;-144.47;54.57
31585;BME280;18191;51.288;12.390;2023-05-19T03:27:15;48861.63;;;-144.47;53.58
31585;BME280;18191;51.288;12.390;2023-05-19T03:32:05;48851.69;;;-144.47;53.30
31585;BME280;18191;51.288;12.390;2023-05-19T03:36:56;48865.63;;;-144.47;53.66
31585;BME280;18191;51.288;12.390;2023-05-19T03:41:46;48809.91;;;-144.47;55.15
31585;BME280;18191;51.288;12.390;2023-05-19T03:46:36;48869.59;;;-144.47;55.01
31585;BME280;18191;51.288;12.390;2023-05-19T03:51:26;48857.66;;;-144.47;54.42
31585;BME280;18191;51.288;12.390;2023-05-19T03:56:18;48861.63;;;-144.47;54.47
31585;BME280;18191;51.288;12.390;2023-05-19T04:01:12;48871.59;;;-144.47;55.88
31585;BME280;18191;51.288;12.390;2023-05-19T04:06:02;48853.69;;;-144.47;54.97
31585;BME280;18191;51.288;12.390;2023-05-19T04:10:52;48881.53;;;-144.47;54.66
31585;BME280;18191;51.288;12.390;2023-05-19T04:15:42;48829.81;;;-144.47;54.72
31585;BME280;18191;51.288;12.390;2023-05-19T04:20:32;48825.84;;;-144.47;54.72
31585;BME280;18191;51.288;12.390;2023-05-19T04:25:22;48845.72;;;-144.47;54.89
31585;BME280;18191;51.288;12.390;2023-05-19T04:30:14;48778.09;;;-144.47;55.06
31585;BME280;18191;51.288;12.390;2023-05-19T04:35:10;48857.66;;;-144.47;54.44
31585;BME280;18191;51.288;12.390;2023-05-19T04:40:02;48885.50;;;-144.47;54.84
31585;BME280;18191;51.288;12.390;2023-05-19T04:44:54;48841.75;;;-144.47;54.36
31585;BME280;18191;51.288;12.390;2023-05-19T04:49:44;48857.66;;;-144.47;54.99
31585;BME280;18191;51.288;12.390;2023-05-19T04:54:35;48829.81;;;-144.47;54.47
31585;BME280;18191;51.288;12.390;2023-05-19T04:59:25;48845.72;;;-144.47;53.24
31585;BME280;18191;51.288;12.390;2023-05-19T05:04:15;48883.53;;;-144.47;52.57
31585;BME280;18191;51.288;12.390;2023-05-19T05:09:06;48833.78;;;-144.47;52.17
31585;BME280;18191;51.288;12.390;2023-05-19T05:13:56;48861.63;;;-144.47;52.03
31585;BME280;18191;51.288;12.390;2023-05-19T05:18:47;48809.91;;;-144.47;52.10
31585;BME280;18191;51.288;12.390;2023-05-19T05:23:37;48829.81;;;-144.47;50.75
31585;BME280;18191;51.288;12.390;2023-05-19T05:28:27;48861.63;;;-144.47;50.25
31585;BME280;18191;51.288;12.390;2023-05-19T05:33:17;48873.56;;;-144.47;49.89
31585;BME280;18191;51.288;12.390;2023-05-19T05:38:08;48813.91;;;-144.47;48.31
31585;BME280;18191;51.288;12.390;2023-05-19T05:43:00;48857.66;;;-144.47;49.46
31585;BME280;18191;51.288;12.390;2023-05-19T05:47:50;48829.81;;;-144.47;47.80
31585;BME280;18191;51.288;12.390;2023-05-19T05:52:40;48813.91;;;-144.47;47.49
31585;BME280;18191;51.288;12.390;2023-05-19T05:57:32;48829.81;;;-144.47;46.07
31585;BME280;18191;51.288;12.390;2023-05-19T06:02:25;48813.91;;;-144.47;46.50
31585;BME280;18191;51.288;12.390;2023-05-19T06:07:17;48813.91;;;-144.47;45.63
31585;BME280;18191;51.288;12.390;2023-05-19T06:12:07;48827.81;;;-144.47;44.64
31585;BME280;18191;51.288;12.390;2023-05-19T06:16:57;48801.97;;;-144.47;43.28
31585;BME280;18191;51.288;12.390;2023-05-19T06:21:47;48817.88;;;-144.47;44.40
31585;BME280;18191;51.288;12.390;2023-05-19T06:26:37;48817.88;;;-144.47;43.42
31585;BME280;18191;51.288;12.390;2023-05-19T06:31:28;48823.84;;;-144.47;41.13
31585;BME280;18191;51.288;12.390;2023-05-19T06:36:18;48813.91;;;-144.47;40.33
31585;BME280;18191;51.288;12.390;2023-05-19T06:41:08;48778.09;;;-144.47;39.98
31585;BME280;18191;51.288;12.390;2023-05-19T06:45:58;48782.06;;;-144.47;41.08
31585;BME280;18191;51.288;12.390;2023-05-19T06:50:48;48839.75;;;-144.47;41.38
31585;BME280;18191;51.288;12.390;2023-05-19T06:55:39;48835.78;;;-144.47;40.40
31585;BME280;18191;51.288;12.390;2023-05-19T07:00:30;48829.81;;;-144.47;42.12
31585;BME280;18191;51.288;12.390;2023-05-19T07:05:20;48801.97;;;-144.47;41.10
31585;BME280;18191;51.288;12.390;2023-05-19T07:10:10;48786.06;;;-144.47;41.84
31585;BME280;18191;51.288;12.390;2023-05-19T07:15:00;48817.88;;;-144.47;43.03
31585;BME280;18191;51.288;12.390;2023-05-19T07:19:50;48821.84;;;-144.47;42.62
31585;BME280;18191;51.288;12.390;2023-05-19T07:24:41;48827.81;;;-144.47;42.14
31585;BME280;18191;51.288;12.390;2023-05-19T07:29:31;48835.78;;;-144.47;41.21
31585;BME280;18191;51.288;12.390;2023-05-19T07:34:21;48813.91;;;-144.47;42.41
31585;BME280;18191;51.288;12.390;2023-05-19T07:39:11;48841.75;;;-144.47;41.73
31585;BME280;18191;51.288;12.390;2023-05-19T07:44:01;48841.75;;;-144.47;41.35
31585;BME280;18191;51.288;12.390;2023-05-19T07:48:56;48825.84;;;-144.47;39.27
31585;BME280;18191;51.288;12.390;2023-05-19T07:53:46;48845.72;;;-144.47;39.28
31585;BME280;18191;51.288;12.390;2023-05-19T07:58:36;48845.72;;;-144.47;38.51
31585;BME280;18191;51.288;12.390;2023-05-19T08:03:28;48843.72;;;-144.47;39.50
31585;BME280;18191;51.288;12.390;2023-05-19T08:08:19;48817.88;;;-144.47;38.82
31585;BME280;18191;51.288;12.390;2023-05-19T08:13:09;48813.91;;;-144.47;38.06
31585;BME280;18191;51.288;12.390;2023-05-19T08:17:59;48821.84;;;-144.47;39.31
31585;BME280;18191;51.288;12.390;2023-05-19T08:22:50;48792.03;;;-144.47;39.51
31585;BME280;18191;51.288;12.390;2023-05-19T08:27:40;48849.69;;;-144.47;38.05
31585;BME280;18191;51.288;12.390;2023-05-19T08:32:30;48845.72;;;-144.47;37.95
31585;BME280;18191;51.288;12.390;2023-05-19T08:37:21;48805.94;;;-144.47;37.32
31585;BME280;18191;51.288;12.390;2023-05-19T08:42:11;48809.91;;;-144.47;37.44
31585;BME280;18191;51.288;12.390;2023-05-19T08:47:02;48819.88;;;-144.47;37.09
31585;BME280;18191;51.288;12.390;2023-05-19T08:51:55;48839.75;;;-144.47;36.73
31585;BME280;18191;51.288;12.390;2023-05-19T08:56:48;48837.78;;;-144.47;36.40
31585;BME280;18191;51.288;12.390;2023-05-19T09:01:39;48813.91;;;-144.47;36.16
31585;BME280;18191;51.288;12.390;2023-05-19T09:06:31;48857.66;;;-144.47;35.65
31585;BME280;18191;51.288;12.390;2023-05-19T09:11:21;48833.78;;;-144.47;35.90
31585;BME280;18191;51.288;12.390;2023-05-19T09:16:12;48809.91;;;-144.47;35.93
31585;BME280;18191;51.288;12.390;2023-05-19T09:21:02;48833.78;;;-144.47;35.25
31585;BME280;18191;51.288;12.390;2023-05-19T09:25:52;48813.91;;;-144.47;34.77
31585;BME280;18191;51.288;12.390;2023-05-19T09:30:42;48813.91;;;-144.47;34.87
31585;BME280;18191;51.288;12.390;2023-05-19T09:35:33;48829.81;;;-144.47;34.96
31585;BME280;18191;51.288;12.390;2023-05-19T09:40:23;48803.94;;;-144.47;35.39
31585;BME280;18191;51.288;12.390;2023-05-19T09:45:16;48809.91;;;-144.47;34.67
31585;BME280;18191;51.288;12.390;2023-05-19T09:50:09;48807.94;;;-144.47;34.00
31585;BME280;18191;51.288;12.390;2023-05-19T09:55:00;48798.00;;;-144.47;33.83
31585;BME280;18191;51.288;12.390;2023-05-19T09:59:53;48801.97;;;-144.47;33.87
31585;BME280;18191;51.288;12.390;2023-05-19T10:04:45;48819.88;;;-144.47;33.41
31585;BME280;18191;51.288;12.390;2023-05-19T10:09:36;48790.03;;;-144.47;33.79
31585;BME280;18191;51.288;12.390;2023-05-19T10:14:27;48809.91;;;-144.47;33.48
31585;BME280;18191;51.288;12.390;2023-05-19T10:19:19;48807.94;;;-144.47;33.63
31585;BME280;18191;51.288;12.390;2023-05-19T10:24:09;48794.00;;;-144.47;32.96
31585;BME280;18191;51.288;12.390;2023-05-19T10:29:00;48807.94;;;-144.47;33.61
31585;BME280;18191;51.288;12.390;2023-05-19T10:39:31;48833.78;;;-144.47;34.27
31585;BME280;18191;51.288;12.390;2023-05-19T10:44:34;48817.88;;;-144.47;33.65
31585;BME280;18191;51.288;12.390;2023-05-19T10:49:29;48778.09;;;-144.47;32.87
31585;BME280;18191;51.288;12.390;2023-05-19T10:54:37;48784.06;;;-144.47;33.94
31585;BME280;18191;51.288;12.390;2023-05-19T10:59:30;48819.88;;;-144.47;33.71
31585;BME280;18191;51.288;12.390;2023-05-19T11:04:21;48798.00;;;-144.47;33.61
31585;BME280;18191;51.288;12.390;2023-05-19T11:09:27;48780.09;;;-144.47;33.80
31585;BME280;18191;51.288;12.390;2023-05-19T11:14:20;48805.94;;;-144.47;34.44
31585;BME280;18191;51.288;12.390;2023-05-19T11:19:33;48805.94;;;-144.47;33.64
31585;BME280;18191;51.288;12.390;2023-05-19T11:29:25;48782.06;;;-144.47;34.30
31585;BME280;18191;51.288;12.390;2023-05-19T11:34:17;48807.94;;;-144.47;33.59
31585;BME280;18191;51.288;12.390;2023-05-19T11:39:07;48801.97;;;-144.47;33.69
31585;BME280;18191;51.288;12.390;2023-05-19T11:43:58;48766.16;;;-144.47;31.01
31585;BME280;18191;51.288;12.390;2023-05-19T11:48:48;48790.03;;;-144.47;30.27
31585;BME280;18191;51.288;12.390;2023-05-19T11:53:39;48766.16;;;-144.47;30.55
31585;BME280;18191;51.288;12.390;2023-05-19T11:58:29;48825.84;;;-144.47;32.18
31585;BME280;18191;51.288;12.390;2023-05-19T12:03:20;48754.22;;;-144.47;32.07
31585;BME280;18191;51.288;12.390;2023-05-19T12:08:10;48782.06;;;-144.47;33.35
31585;BME280;18191;51.288;12.390;2023-05-19T12:13:00;48796.00;;;-144.47;32.89
31585;BME280;18191;51.288;12.390;2023-05-19T12:17:55;48823.84;;;-144.47;30.62
31585;BME280;18191;51.288;12.390;2023-05-19T12:22:46;48794.00;;;-144.47;31.83
31585;BME280;18191;51.288;12.390;2023-05-19T12:27:36;48829.81;;;-144.47;29.74
31585;BME280;18191;51.288;12.390;2023-05-19T12:32:27;48807.94;;;-144.47;31.37
31585;BME280;18191;51.288;12.390;2023-05-19T12:37:20;48831.81;;;-144.47;30.71
31585;BME280;18191;51.288;12.390;2023-05-19T12:42:10;48811.91;;;-144.47;30.89
31585;BME280;18191;51.288;12.390;2023-05-19T12:47:04;48794.00;;;-144.47;31.51
31585;BME280;18191;51.288;12.390;2023-05-19T12:51:54;48766.16;;;-144.47;30.87
31585;BME280;18191;51.288;12.390;2023-05-19T12:56:48;48770.13;;;-144.47;31.45
31585;BME280;18191;51.288;12.390;2023-05-19T13:01:39;48796.00;;;-144.47;31.09
31585;BME280;18191;51.288;12.390;2023-05-19T13:06:29;48817.88;;;-144.47;31.37
31585;BME280;18191;51.288;12.390;2023-05-19T13:11:21;48798.00;;;-144.47;31.05
31585;BME280;18191;51.288;12.390;2023-05-19T13:16:11;48801.97;;;-144.47;30.42
31585;BME280;18191;51.288;12.390;2023-05-19T13:21:02;48798.00;;;-144.47;30.56
31585;BME280;18191;51.288;12.390;2023-05-19T13:25:53;48798.00;;;-144.47;29.82
31585;BME280;18191;51.288;12.390;2023-05-19T13:30:43;48794.00;;;-144.47;30.33
31585;BME280;18191;51.288;12.390;2023-05-19T13:35:34;48794.00;;;-144.47;30.15
31585;BME280;18191;51.288;12.390;2023-05-19T13:40:27;48821.84;;;-144.47;31.00
31585;BME280;18191;51.288;12.390;2023-05-19T13:45:21;48786.06;;;-144.47;31.49
31585;BME280;18191;51.288;12.390;2023-05-19T13:50:11;48778.09;;;-144.47;30.70
31585;BME280;18191;51.288;12.390;2023-05-19T13:55:01;48790.03;;;-144.47;32.46
31585;BME280;18191;51.288;12.390;2023-05-19T13:59:53;48805.94;;;-144.47;33.59
31585;BME280;18191;51.288;12.390;2023-05-19T14:04:43;48825.84;;;-144.47;32.66
31585;BME280;18191;51.288;12.390;2023-05-19T14:09:33;48778.09;;;-144.47;32.47
31585;BME280;18191;51.288;12.390;2023-05-19T14:14:23;48853.69;;;-144.47;32.76
31585;BME280;18191;51.288;12.390;2023-05-19T14:19:14;48786.06;;;-144.47;32.30
31585;BME280;18191;51.288;12.390;2023-05-19T14:24:04;48825.84;;;-144.47;33.43
31585;BME280;18191;51.288;12.390;2023-05-19T14:28:54;48845.72;;;-144.47;33.38
31585;BME280;18191;51.288;12.390;2023-05-19T14:33:45;48837.78;;;-144.47;33.25
31585;BME280;18191;51.288;12.390;2023-05-19T14:38:36;48817.88;;;-144.47;35.07
31585;BME280;18191;51.288;12.390;2023-05-19T14:43:26;48817.88;;;-144.47;34.58
31585;BME280;18191;51.288;12.390;2023-05-19T14:48:16;48841.75;;;-144.47;33.67
31585;BME280;18191;51.288;12.390;2023-05-19T14:53:06;48819.88;;;-144.47;33.45
31585;BME280;18191;51.288;12.390;2023-05-19T14:57:57;48805.94;;;-144.47;34.03
31585;BME280;18191;51.288;12.390;2023-05-19T15:02:47;48805.94;;;-144.47;33.90
31585;BME280;18191;51.288;12.390;2023-05-19T15:07:38;48825.84;;;-144.47;34.12
31585;BME280;18191;51.288;12.390;2023-05-19T15:12:28;48803.94;;;-144.47;33.68
31585;BME280;18191;51.288;12.390;2023-05-19T15:17:18;48825.84;;;-144.47;34.90
31585;BME280;18191;51.288;12.390;2023-05-19T15:22:09;48809.91;;;-144.47;36.10
31585;BME280;18191;51.288;12.390;2023-05-19T15:26:59;48807.94;;;-144.47;35.76
31585;BME280;18191;51.288;12.390;2023-05-19T15:31:50;48833.78;;;-144.47;35.00
31585;BME280;18191;51.288;12.390;2023-05-19T15:36:43;48801.97;;;-144.47;34.90
31585;BME280;18191;51.288;12.390;2023-05-19T15:41:33;48843.72;;;-144.47;35.30
31585;BME280;18191;51.288;12.390;2023-05-19T15:46:23;48825.84;;;-144.47;34.04
31585;BME280;18191;51.288;12.390;2023-05-19T15:51:13;48794.00;;;-144.47;34.74
31585;BME280;18191;51.288;12.390;2023-05-19T15:56:04;48857.66;;;-144.47;34.60
31585;BME280;18191;51.288;12.390;2023-05-19T16:00:54;48786.06;;;-144.47;35.22
31585;BME280;18191;51.288;12.390;2023-05-19T16:05:45;48833.78;;;-144.47;35.68
31585;BME280;18191;51.288;12.390;2023-05-19T16:10:35;48821.84;;;-144.47;35.65
31585;BME280;18191;51.288;12.390;2023-05-19T16:15:25;48839.75;;;-144.47;36.87
31585;BME280;18191;51.288;12.390;2023-05-19T16:20:15;48825.84;;;-144.47;36.51
31585;BME280;18191;51.288;12.390;2023-05-19T16:25:06;48801.97;;;-144.47;36.58
31585;BME280;18191;51.288;12.390;2023-05-19T16:29:56;48817.88;;;-144.47;36.46
31585;BME280;18191;51.288;12.390;2023-05-19T16:34:46;48829.81;;;-144.47;36.85
31585;BME280;18191;51.288;12.390;2023-05-19T16:39:36;48815.88;;;-144.47;37.38
31585;BME280;18191;51.288;12.390;2023-05-19T16:44:27;48803.94;;;-144.47;36.74
31585;BME280;18191;51.288;12.390;2023-05-19T16:49:17;48813.91;;;-144.47;38.00
31585;BME280;18191;51.288;12.390;2023-05-19T16:54:07;48839.75;;;-144.47;38.55
31585;BME280;18191;51.288;12.390;2023-05-19T16:58:57;48863.63;;;-144.47;39.38
31585;BME280;18191;51.288;12.390;2023-05-19T17:03:47;48798.00;;;-144.47;38.76
31585;BME280;18191;51.288;12.390;2023-05-19T17:08:38;48821.84;;;-144.47;38.68
31585;BME280;18191;51.288;12.390;2023-05-19T17:13:28;48845.72;;;-144.47;37.58
31585;BME280;18191;51.288;12.390;2023-05-19T17:18:22;48861.63;;;-144.47;38.21
31585;BME280;18191;51.288;12.390;2023-05-19T17:23:12;48807.94;;;-144.47;38.98
31585;BME280;18191;51.288;12.390;2023-05-19T17:28:02;48871.59;;;-144.47;39.31
31585;BME280;18191;51.288;12.390;2023-05-19T17:32:53;48825.84;;;-144.47;39.87
31585;BME280;18191;51.288;12.390;2023-05-19T17:37:43;48873.56;;;-144.47;40.60
31585;BME280;18191;51.288;12.390;2023-05-19T17:42:33;48829.81;;;-144.47;40.35
31585;BME280;18191;51.288;12.390;2023-05-19T17:47:23;48861.63;;;-144.47;41.16
31585;BME280;18191;51.288;12.390;2023-05-19T17:52:13;48877.56;;;-144.47;41.56
31585;BME280;18191;51.288;12.390;2023-05-19T17:57:06;48799.97;;;-144.47;41.93
31585;BME280;18191;51.288;12.390;2023-05-19T18:01:59;48857.66;;;-144.47;42.35
31585;BME280;18191;51.288;12.390;2023-05-19T18:06:50;48825.84;;;-144.47;43.82
31585;BME280;18191;51.288;12.390;2023-05-19T18:11:41;48829.81;;;-144.47;44.28
31585;BME280;18191;51.288;12.390;2023-05-19T18:16:31;48801.97;;;-144.47;44.15
31585;BME280;18191;51.288;12.390;2023-05-19T18:21:22;48845.72;;;-144.47;44.40
31585;BME280;18191;51.288;12.390;2023-05-19T18:26:13;48853.69;;;-144.47;45.37
31585;BME280;18191;51.288;12.390;2023-05-19T18:31:03;48857.66;;;-144.47;45.97
31585;BME280;18191;51.288;12.390;2023-05-19T18:35:54;48861.63;;;-144.47;47.15
31585;BME280;18191;51.288;12.390;2023-05-19T18:40:44;48813.91;;;-144.47;46.98
31585;BME280;18191;51.288;12.390;2023-05-19T18:45:35;48843.72;;;-144.47;47.76
31585;BME280;18191;51.288;12.390;2023-05-19T18:50:25;48827.81;;;-144.47;48.24
31585;BME280;18191;51.288;12.390;2023-05-19T18:55:15;48845.72;;;-144.47;48.75
31585;BME280;18191;51.288;12.390;2023-05-19T19:00:06;48841.75;;;-144.47;49.49
31585;BME280;18191;51.288;12.390;2023-05-19T19:04:56;48847.72;;;-144.47;50.12
31585;BME280;18191;51.288;12.390;2023-05-19T19:09:46;48813.91;;;-144.47;50.96
31585;BME280;18191;51.288;12.390;2023-05-19T19:14:36;48837.78;;;-144.47;50.01
31585;BME280;18191;51.288;12.390;2023-05-19T19:19:27;48849.69;;;-144.47;50.97
31585;BME280;18191;51.288;12.390;2023-05-19T19:24:19;48817.88;;;-144.47;51.82
31585;BME280;18191;51.288;12.390;2023-05-19T19:29:09;48843.72;;;-144.47;52.21
31585;BME280;18191;51.288;12.390;2023-05-19T19:33:59;48829.81;;;-144.47;51.99
31585;BME280;18191;51.288;12.390;2023-05-19T19:38:52;48841.75;;;-144.47;53.51
31585;BME280;18191;51.288;12.390;2023-05-19T19:43:42;48827.81;;;-144.47;54.09
31585;BME280;18191;51.288;12.390;2023-05-19T19:48:32;48849.69;;;-144.47;55.19
31585;BME280;18191;51.288;12.390;2023-05-19T19:53:23;48853.69;;;-144.47;55.13
31585;BME280;18191;51.288;12.390;2023-05-19T19:58:13;48829.81;;;-144.47;55.74
31585;BME280;18191;51.288;12.390;2023-05-19T20:03:03;48841.75;;;-144.47;56.15
31585;BME280;18191;51.288;12.390;2023-05-19T20:07:53;48833.78;;;-144.47;56.71
31585;BME280;18191;51.288;12.390;2023-05-19T20:12:43;48809.91;;;-144.47;56.82
31585;BME280;18191;51.288;12.390;2023-05-19T20:17:36;48829.81;;;-144.47;57.75
31585;BME280;18191;51.288;12.390;2023-05-19T20:22:26;48857.66;;;-144.47;57.75
31585;BME280;18191;51.288;12.390;2023-05-19T20:27:16;48821.84;;;-144.47;58.48
31585;BME280;18191;51.288;12.390;2023-05-19T20:32:06;48873.56;;;-144.47;59.31
31585;BME280;18191;51.288;12.390;2023-05-19T20:36:56;48847.72;;;-144.47;60.12
31585;BME280;18191;51.288;12.390;2023-05-19T20:41:46;48782.06;;;-144.47;60.00
31585;BME280;18191;51.288;12.390;2023-05-19T20:46:39;48855.66;;;-144.47;59.89
31585;BME280;18191;51.288;12.390;2023-05-19T20:51:29;48881.53;;;-144.47;60.59
31585;BME280;18191;51.288;12.390;2023-05-19T20:56:20;48817.88;;;-144.47;60.84
31585;BME280;18191;51.288;12.390;2023-05-19T21:01:11;48853.69;;;-144.47;62.22
31585;BME280;18191;51.288;12.390;2023-05-19T21:06:01;48853.69;;;-144.47;62.45
31585;BME280;18191;51.288;12.390;2023-05-19T21:10:52;48847.72;;;-144.47;62.93
31585;BME280;18191;51.288;12.390;2023-05-19T21:15:42;48831.81;;;-144.47;62.70
31585;BME280;18191;51.288;12.390;2023-05-19T21:20:32;48845.72;;;-144.47;63.00
31585;BME280;18191;51.288;12.390;2023-05-19T21:25:23;48867.59;;;-144.47;64.34
31585;BME280;18191;51.288;12.390;2023-05-19T21:30:13;48853.69;;;-144.47;63.86
31585;BME280;18191;51.288;12.390;2023-05-19T21:35:04;48855.66;;;-144.47;64.59
31585;BME280;18191;51.288;12.390;2023-05-19T21:39:54;48837.78;;;-144.47;64.29
31585;BME280;18191;51.288;12.390;2023-05-19T21:44:45;48869.59;;;-144.47;65.19
31585;BME280;18191;51.288;12.390;2023-05-19T21:49:35;48853.69;;;-144.47;65.38
31585;BME280;18191;51.288;12.390;2023-05-19T21:54:27;48833.78;;;-144.47;66.60
31585;BME280;18191;51.288;12.390;2023-05-19T21:59:17;48893.47;;;-144.47;66.58
31585;BME280;18191;51.288;12.390;2023-05-19T22:04:08;48821.84;;;-144.47;66.99
31585;BME280;18191;51.288;12.390;2023-05-19T22:08:59;48861.63;;;-144.47;67.36
31585;BME280;18191;51.288;12.390;2023-05-19T22:13:51;48857.66;;;-144.47;67.02
31585;BME280;18191;51.288;12.390;2023-05-19T22:18:44;48851.69;;;-144.47;67.48
31585;BME280;18191;51.288;12.390;2023-05-19T22:23:35;48853.69;;;-144.47;67.38
31585;BME280;18191;51.288;12.390;2023-05-19T22:28:25;48847.72;;;-144.47;67.51
31585;BME280;18191;51.288;12.390;2023-05-19T22:33:16;48849.69;;;-144.47;67.16
31585;BME280;18191;51.288;12.390;2023-05-19T22:38:06;48837.78;;;-144.47;67.83
31585;BME280;18191;51.288;12.390;2023-05-19T22:42:56;48845.72;;;-144.47;67.15
31585;BME280;18191;51.288;12.390;2023-05-19T22:47:46;48845.72;;;-144.47;67.74
31585;BME280;18191;51.288;12.390;2023-05-19T22:52:36;48887.50;;;-144.47;68.27
31585;BME280;18191;51.288;12.390;2023-05-19T22:57:27;48853.69;;;-144.47;68.04
31585;BME280;18191;51.288;12.390;2023-05-19T23:02:17;48869.59;;;-144.47;67.50
31585;BME280;18191;51.288;12.390;2023-05-19T23:07:08;48833.78;;;-144.47;67.91
31585;BME280;18191;51.288;12.390;2023-05-19T23:11:58;48849.69;;;-144.47;67.71
31585;BME280;18191;51.288;12.390;2023-05-19T23:16:49;48889.50;;;-144.47;68.34
31585;BME280;18191;51.288;12.390;2023-05-19T23:21:40;48853.69;;;-144.47;67.47
31585;BME280;18191;51.288;12.390;2023-05-19T23:26:30;48857.66;;;-144.47;68.33
31585;BME280;18191;51.288;12.390;2023-05-19T23:31:20;48861.63;;;-144.47;68.88
31585;BME280;18191;51.288;12.390;2023-05-19T23:36:10;48829.81;;;-144.47;68.92
31585;BME280;18191;51.288;12.390;2023-05-19T23:41:01;48865.63;;;-144.47;68.59
31585;BME280;18191;51.288;12.390;2023-05-19T23:45:51;48849.69;;;-144.47;68.30
31585;BME280;18191;51.288;12.390;2023-05-19T23:50:41;48861.63;;;-144.47;68.57
31585;BME280;18191;51.288;12.390;2023-05-19T23:55:31;48873.56;;;-144.47;68.87
